Time,TemperatureF,DewpointF,PressureIn,WindDirection,WindDirectionDegrees,WindSpeedMPH,WindSpeedGustMPH,Humidity,HourlyPrecipIn,Conditions,Clouds,dailyrainin,SoftwareType,DateUTC
2013-01-09 00:08:00,40.2,30.9,24.52,East,99,1.0,7.0,69,0.00,,OVC,-99.99,VWS V12.07,2013-01-09 08:08:00,
2013-01-09 00:14:00,40.4,30.7,24.52,East,99,1.0,4.0,68,0.00,,OVC,-99.99,VWS V12.07,2013-01-09 08:14:00,
2013-01-09 00:19:00,40.6,30.9,24.53,SE,139,1.0,5.0,68,0.00,,OVC,-99.99,VWS V12.07,2013-01-09 08:19:00,
2013-01-09 00:24:00,40.7,31.0,24.52,SE,139,1.0,3.0,68,0.00,,OVC,-99.99,VWS V12.07,2013-01-09 08:24:00,
2013-01-09 00:29:00,40.8,31.1,24.52,East,101,0.0,5.0,68,0.00,,OVC,-99.99,VWS V12.07,2013-01-09 08:29:00,
2013-01-09 00:34:00,40.8,31.1,24.52,East,101,1.0,3.0,68,0.00,,OVC,-99.99,VWS V12.07,2013-01-09 08:34:00,
2013-01-09 00:40:00,40.7,31.0,24.52,East,101,0.0,3.0,68,0.00,,OVC,-99.99,VWS V12.07,2013-01-09 08:40:00,
2013-01-09 00:45:00,40.6,30.9,24.52,East,101,3.0,4.0,68,0.00,,OVC,-99.99,VWS V12.07,2013-01-09 08:45:00,
2013-01-09 00:51:00,40.6,30.9,24.52,East,101,1.0,2.0,68,0.00,,OVC,-99.99,VWS V12.07,2013-01-09 08:51:00,
2013-01-09 00:56:00,40.6,31.2,24.52,East,101,0.0,2.0,69,0.00,,OVC,-99.99,VWS V12.07,2013-01-09 08:56:00,
2013-01-09 01:08:00,40.1,31.1,24.52,East,101,0.0,2.0,70,0.00,,OVC,-99.99,VWS V12.07,2013-01-09 09:08:00,
2013-01-09 01:14:00,40.0,30.7,24.52,East,94,8.0,8.0,69,0.00,,OVC,-99.99,VWS V12.07,2013-01-09 09:14:00,
2013-01-09 01:19:00,40.2,30.9,24.52,SE,140,4.0,8.0,69,0.00,,OVC,-99.99,VWS V12.07,2013-01-09 09:19:00,
2013-01-09 01:24:00,40.4,31.0,24.52,ESE,119,0.0,4.0,69,0.00,,OVC,-99.99,VWS V12.07,2013-01-09 09:24:00,
2013-01-09 01:29:00,40.4,31.0,24.52,ESE,119,4.0,4.0,69,0.00,,OVC,-99.99,VWS V12.07,2013-01-09 09:29:00,
2013-01-09 01:34:00,40.5,30.8,24.52,East,96,2.0,5.0,68,0.00,,OVC,-99.99,VWS V12.07,2013-01-09 09:34:00,
2013-01-09 01:40:00,40.6,30.9,24.52,ESE,102,2.0,5.0,68,0.00,,OVC,-99.99,VWS V12.07,2013-01-09 09:40:00,
2013-01-09 01:45:00,40.7,31.0,24.52,East,101,1.0,4.0,68,0.00,,OVC,-99.99,VWS V12.07,2013-01-09 09:45:00,
2013-01-09 01:50:00,40.6,31.2,24.51,ESE,102,1.0,2.0,69,0.00,,OVC,-99.99,VWS V12.07,2013-01-09 09:50:00,
2013-01-09 01:56:00,40.4,31.0,24.51,ESE,102,1.0,3.0,69,0.00,,OVC,-99.99,VWS V12.07,2013-01-09 09:56:00,
2013-01-09 02:08:00,39.8,31.2,24.52,ESE,102,0.0,3.0,71,0.00,,OVC,-99.99,VWS V12.07,2013-01-09 10:08:00,
2013-01-09 02:14:00,39.6,31.0,24.52,ESE,102,2.0,5.0,71,0.00,,OVC,-99.99,VWS V12.07,2013-01-09 10:14:00,
2013-01-09 02:19:00,39.6,31.0,24.52,ESE,102,2.0,5.0,71,0.00,,OVC,-99.99,VWS V12.07,2013-01-09 10:19:00,
2013-01-09 02:24:00,39.5,30.9,24.52,ESE,102,1.0,3.0,71,0.00,,OVC,-99.99,VWS V12.07,2013-01-09 10:24:00,
2013-01-09 02:29:00,39.3,31.0,24.52,East,101,2.0,3.0,72,0.00,,OVC,-99.99,VWS V12.07,2013-01-09 10:29:00,
2013-01-09 02:34:00,39.1,30.9,24.51,ESE,102,1.0,2.0,72,0.00,,OVC,-99.99,VWS V12.07,2013-01-09 10:34:00,
2013-01-09 02:40:00,38.9,30.7,24.51,ESE,102,0.0,2.0,72,0.00,,OVC,-99.99,VWS V12.07,2013-01-09 10:40:00,
2013-01-09 02:45:00,38.7,30.8,24.51,ESE,102,0.0,0.0,73,0.00,,OVC,-99.99,VWS V12.07,2013-01-09 10:45:00,
2013-01-09 02:50:00,38.5,30.6,24.51,East,101,0.0,3.0,73,0.00,,OVC,-99.99,VWS V12.07,2013-01-09 10:50:00,
2013-01-09 02:55:00,38.5,30.6,24.50,ESE,102,2.0,4.0,73,0.00,,OVC,-99.99,VWS V12.07,2013-01-09 10:55:00,
2013-01-09 03:09:00,38.2,30.7,24.50,East,101,0.0,0.0,74,0.00,,OVC,-99.99,VWS V12.07,2013-01-09 11:09:00,
2013-01-09 03:15:00,38.0,30.5,24.51,ESE,102,0.0,0.0,74,0.00,,OVC,-99.99,VWS V12.07,2013-01-09 11:15:00,
2013-01-09 03:20:00,37.9,30.4,24.50,East,101,0.0,0.0,74,0.00,,OVC,-99.99,VWS V12.07,2013-01-09 11:20:00,
2013-01-09 03:26:00,37.9,30.0,24.51,East,101,0.0,0.0,73,0.00,,OVC,-99.99,VWS V12.07,2013-01-09 11:26:00,
2013-01-09 03:35:00,37.8,29.6,24.50,ESE,102,0.0,0.0,72,0.00,,OVC,-99.99,VWS V12.07,2013-01-09 11:35:00,
2013-01-09 03:40:00,37.7,29.5,24.50,ESE,102,0.0,0.0,72,0.00,,OVC,-99.99,VWS V12.07,2013-01-09 11:40:00,
2013-01-09 03:45:00,37.7,29.8,24.50,East,101,0.0,0.0,73,0.00,,OVC,-99.99,VWS V12.07,2013-01-09 11:45:00,
2013-01-09 03:50:00,37.7,29.5,24.50,East,101,0.0,0.0,72,0.00,,OVC,-99.99,VWS V12.07,2013-01-09 11:50:00,
2013-01-09 07:11:00,41.3,30.1,24.49,ESE,102,0.0,0.0,64,0.00,,OVC,-99.99,VWS V12.07,2013-01-09 15:11:00,
2013-01-09 07:17:00,41.3,30.1,24.49,ESE,102,0.0,0.0,64,0.00,,OVC,-99.99,VWS V12.07,2013-01-09 15:17:00,
2013-01-09 07:22:00,41.3,30.1,24.49,East,101,0.0,0.0,64,0.00,,OVC,-99.99,VWS V12.07,2013-01-09 15:22:00,
2013-01-09 07:27:00,41.2,30.0,24.49,ESE,102,0.0,0.0,64,0.00,,OVC,-99.99,VWS V12.07,2013-01-09 15:27:00,
2013-01-09 07:34:00,41.2,30.0,24.50,ESE,102,0.0,0.0,64,0.00,,OVC,-99.99,VWS V12.07,2013-01-09 15:34:00,
2013-01-09 07:40:00,41.3,30.1,24.50,ESE,102,0.0,0.0,64,0.00,,OVC,-99.99,VWS V12.07,2013-01-09 15:40:00,
2013-01-09 07:47:00,41.4,30.5,24.49,ESE,102,0.0,0.0,65,0.00,,OVC,-99.99,VWS V12.07,2013-01-09 15:47:00,
2013-01-09 07:53:00,41.4,30.5,24.49,ESE,102,0.0,0.0,65,0.00,,OVC,-99.99,VWS V12.07,2013-01-09 15:53:00,
2013-01-09 07:58:00,41.4,30.5,24.49,ESE,102,1.0,2.0,65,0.00,,OVC,-99.99,VWS V12.07,2013-01-09 15:58:00,
2013-01-09 08:09:00,41.7,31.2,24.50,ESE,102,0.0,5.0,66,0.00,,OVC,-99.99,VWS V12.07,2013-01-09 16:09:00,
2013-01-09 08:15:00,41.8,30.9,24.50,ESE,102,2.0,3.0,65,0.00,,OVC,-99.99,VWS V12.07,2013-01-09 16:15:00,
2013-01-09 08:21:00,42.0,31.1,24.50,ESE,102,1.0,2.0,65,0.00,,OVC,-99.99,VWS V12.07,2013-01-09 16:21:00,
2013-01-09 08:26:00,42.2,31.3,24.50,ESE,102,2.0,3.0,65,0.00,,OVC,-99.99,VWS V12.07,2013-01-09 16:26:00,
2013-01-09 08:34:00,42.7,31.8,24.50,East,101,0.0,1.0,65,0.00,,OVC,-99.99,VWS V12.07,2013-01-09 16:34:00,
2013-01-09 08:40:00,42.9,31.6,24.50,ESE,102,5.0,5.0,64,0.00,,OVC,-99.99,VWS V12.07,2013-01-09 16:40:00,
2013-01-09 08:45:00,43.4,31.7,24.50,SSE,157,3.0,6.0,63,0.00,,OVC,-99.99,VWS V12.07,2013-01-09 16:45:00,
2013-01-09 08:51:00,44.3,31.7,24.50,SSE,157,2.0,4.0,61,0.00,,OVC,-99.99,VWS V12.07,2013-01-09 16:51:00,
2013-01-09 08:56:00,44.8,31.8,24.50,South,172,5.0,6.0,60,0.00,,OVC,-99.99,VWS V12.07,2013-01-09 16:56:00,
2013-01-09 09:08:00,45.8,33.1,24.50,SSE,155,2.0,4.0,61,0.00,,OVC,-99.99,VWS V12.07,2013-01-09 17:08:00,
2013-01-09 09:14:00,46.1,33.0,24.50,SSE,155,2.0,4.0,60,0.00,,OVC,-99.99,VWS V12.07,2013-01-09 17:14:00,
2013-01-09 09:19:00,46.3,33.6,24.50,SSE,155,3.0,4.0,61,0.00,,OVC,-99.99,VWS V12.07,2013-01-09 17:19:00,
2013-01-09 09:24:00,46.7,33.2,24.50,SSE,167,2.0,7.0,59,0.00,,OVC,-99.99,VWS V12.07,2013-01-09 17:24:00,
2013-01-09 09:29:00,47.1,33.5,24.50,SSE,167,3.0,7.0,59,0.00,,OVC,-99.99,VWS V12.07,2013-01-09 17:29:00,
2013-01-09 09:34:00,47.3,33.7,24.49,SSE,165,4.0,5.0,59,0.00,,OVC,-99.99,VWS V12.07,2013-01-09 17:34:00,
2013-01-09 09:40:00,47.6,33.1,24.49,SE,125,4.0,8.0,57,0.00,,OVC,-99.99,VWS V12.07,2013-01-09 17:40:00,
2013-01-09 09:45:00,47.8,33.3,24.49,SSE,151,3.0,7.0,57,0.00,,OVC,-99.99,VWS V12.07,2013-01-09 17:45:00,
2013-01-09 09:51:00,48.2,34.1,24.49,SSE,149,5.0,5.0,58,0.00,,OVC,-99.99,VWS V12.07,2013-01-09 17:51:00,
2013-01-09 09:56:00,48.4,34.3,24.49,SSE,162,4.0,6.0,58,0.00,,OVC,-99.99,VWS V12.07,2013-01-09 17:56:00,
2013-01-09 10:08:00,48.7,33.7,24.49,SSE,156,4.0,10.0,56,0.00,,OVC,-99.99,VWS V12.07,2013-01-09 18:08:00,
2013-01-09 10:14:00,48.7,34.2,24.48,SE,146,3.0,9.0,57,0.00,,OVC,-99.99,VWS V12.07,2013-01-09 18:14:00,
2013-01-09 10:19:00,48.8,33.8,24.49,SSE,157,6.0,9.0,56,0.00,,OVC,-99.99,VWS V12.07,2013-01-09 18:19:00,
2013-01-09 10:24:00,48.9,33.5,24.48,SSE,155,3.0,9.0,55,0.00,,OVC,-99.99,VWS V12.07,2013-01-09 18:24:00,
2013-01-09 10:29:00,49.0,33.5,24.48,ESE,118,3.0,9.0,55,0.00,,OVC,-99.99,VWS V12.07,2013-01-09 18:29:00,
2013-01-09 10:42:00,49.2,33.7,24.48,SSE,154,4.0,7.0,55,0.00,,OVC,-99.99,VWS V12.07,2013-01-09 18:42:00,
2013-01-09 10:43:00,49.2,34.2,24.48,SSE,154,4.0,7.0,56,0.00,,OVC,-99.99,VWS V12.07,2013-01-09 18:43:00,
2013-01-09 10:44:00,49.2,33.7,24.47,SSE,150,4.0,10.0,55,0.00,,OVC,-99.99,VWS V12.07,2013-01-09 18:44:00,
2013-01-09 10:45:00,49.2,34.2,24.48,SSE,153,6.0,10.0,56,0.00,,OVC,-99.99,VWS V12.07,2013-01-09 18:45:00,
2013-01-09 10:46:00,49.2,33.7,24.48,SE,139,4.0,10.0,55,0.00,,OVC,-99.99,VWS V12.07,2013-01-09 18:46:00,
2013-01-09 10:48:00,49.3,33.8,24.48,SE,132,3.0,10.0,55,0.00,,OVC,-99.99,VWS V12.07,2013-01-09 18:48:00,
2013-01-09 10:49:00,49.3,33.8,24.47,ESE,118,4.0,10.0,55,0.00,,OVC,-99.99,VWS V12.07,2013-01-09 18:49:00,
2013-01-09 10:51:00,49.3,34.3,24.47,SSE,149,7.0,8.0,56,0.00,,OVC,-99.99,VWS V12.07,2013-01-09 18:51:00,
2013-01-09 10:52:00,49.3,33.8,24.48,SE,140,4.0,11.0,55,0.00,,OVC,-99.99,VWS V12.07,2013-01-09 18:52:00,
2013-01-09 10:54:00,49.3,33.8,24.47,SE,142,4.0,11.0,55,0.00,,OVC,-99.99,VWS V12.07,2013-01-09 18:54:00,
2013-01-09 10:59:00,49.4,33.5,24.47,ESE,109,4.0,11.0,54,0.00,,OVC,-99.99,VWS V12.07,2013-01-09 18:59:00,
2013-01-09 11:16:00,49.8,33.8,24.46,SSE,162,11.0,13.0,54,0.00,,OVC,-99.99,VWS V12.07,2013-01-09 19:16:00,
2013-01-09 11:22:00,50.0,34.0,24.46,SSE,151,7.0,9.0,54,0.00,,OVC,-99.99,VWS V12.07,2013-01-09 19:22:00,
2013-01-09 11:27:00,50.0,33.6,24.47,SE,129,3.0,10.0,53,0.00,,OVC,-99.99,VWS V12.07,2013-01-09 19:27:00,
2013-01-09 11:39:00,50.0,34.0,24.46,SE,146,3.0,11.0,54,0.00,,OVC,-99.99,VWS V12.07,2013-01-09 19:39:00,
2013-01-09 11:44:00,50.0,34.0,24.46,East,100,4.0,9.0,54,0.00,,OVC,-99.99,VWS V12.07,2013-01-09 19:44:00,
2013-01-09 11:50:00,50.0,34.5,24.46,South,179,4.0,9.0,55,0.00,,OVC,-99.99,VWS V12.07,2013-01-09 19:50:00,
2013-01-09 11:55:00,50.2,33.7,24.45,SSE,154,4.0,9.0,53,0.00,,OVC,-99.99,VWS V12.07,2013-01-09 19:55:00,
2013-01-09 12:08:00,51.3,34.3,24.45,SSE,164,4.0,9.0,52,0.00,,OVC,-99.99,VWS V12.07,2013-01-09 20:08:00,
2013-01-09 12:14:00,51.6,34.1,24.45,SSE,166,6.0,10.0,51,0.00,,OVC,-99.99,VWS V12.07,2013-01-09 20:14:00,
2013-01-09 12:19:00,51.6,33.6,24.44,SSE,161,2.0,12.0,50,0.00,,OVC,-99.99,VWS V12.07,2013-01-09 20:19:00,
2013-01-09 12:24:00,51.5,33.5,24.44,SSE,160,5.0,12.0,50,0.00,,OVC,-99.99,VWS V12.07,2013-01-09 20:24:00,
2013-01-09 12:29:00,51.2,33.2,24.44,SE,143,5.0,13.0,50,0.00,,OVC,-99.99,VWS V12.07,2013-01-09 20:29:00,
2013-01-09 12:34:00,51.0,33.5,24.44,SSE,163,6.0,13.0,51,0.00,,OVC,-99.99,VWS V12.07,2013-01-09 20:34:00,
2013-01-09 12:40:00,50.7,33.2,24.44,SSE,154,7.0,7.0,51,0.00,,OVC,-99.99,VWS V12.07,2013-01-09 20:40:00,
2013-01-09 12:46:00,50.6,33.2,24.44,SE,142,6.0,13.0,51,0.00,,OVC,-99.99,VWS V12.07,2013-01-09 20:46:00,
2013-01-09 12:51:00,50.5,33.1,24.44,SSE,168,8.0,12.0,51,0.00,,OVC,-99.99,VWS V12.07,2013-01-09 20:51:00,
2013-01-09 12:56:00,50.3,33.4,24.43,SE,133,5.0,12.0,52,0.00,,OVC,-99.99,VWS V12.07,2013-01-09 20:56:00,
2013-01-09 13:08:00,49.8,33.4,24.43,NE,49,3.0,12.0,53,0.00,,OVC,-99.99,VWS V12.07,2013-01-09 21:08:00,
2013-01-09 13:14:00,49.6,33.2,24.42,SSE,164,13.0,14.0,53,0.00,,OVC,-99.99,VWS V12.07,2013-01-09 21:14:00,
2013-01-09 13:19:00,49.4,33.5,24.42,SSE,162,12.0,14.0,54,0.00,,OVC,-99.99,VWS V12.07,2013-01-09 21:19:00,
2013-01-09 13:24:00,49.2,33.7,24.42,SSE,167,9.0,13.0,55,0.00,,OVC,-99.99,VWS V12.07,2013-01-09 21:24:00,
2013-01-09 13:29:00,49.1,34.1,24.42,SSE,165,5.0,13.0,56,0.00,,OVC,-99.99,VWS V12.07,2013-01-09 21:29:00,
2013-01-09 13:34:00,49.0,34.0,24.43,SSE,165,9.0,11.0,56,0.00,,OVC,-99.99,VWS V12.07,2013-01-09 21:34:00,
2013-01-09 13:40:00,48.9,33.9,24.42,SW,236,3.0,6.0,56,0.00,,OVC,-99.99,VWS V12.07,2013-01-09 21:40:00,
2013-01-09 13:45:00,48.9,34.8,24.42,SE,146,3.0,9.0,58,0.00,,OVC,-99.99,VWS V12.07,2013-01-09 21:45:00,
2013-01-09 13:51:00,48.8,34.7,24.42,South,175,6.0,7.0,58,0.00,,OVC,-99.99,VWS V12.07,2013-01-09 21:51:00,
2013-01-09 13:56:00,48.8,34.3,24.42,SE,130,2.0,12.0,57,0.00,,OVC,-99.99,VWS V12.07,2013-01-09 21:56:00,
2013-01-09 14:09:00,48.5,34.4,24.42,SSE,157,4.0,13.0,58,0.00,,OVC,-99.99,VWS V12.07,2013-01-09 22:09:00,
2013-01-09 14:15:00,48.5,34.8,24.42,SE,131,6.0,11.0,59,0.00,,OVC,-99.99,VWS V12.07,2013-01-09 22:15:00,
2013-01-09 14:21:00,48.4,34.8,24.42,SSE,159,8.0,10.0,59,0.00,,OVC,-99.99,VWS V12.07,2013-01-09 22:21:00,
2013-01-09 14:26:00,48.3,34.7,24.42,South,169,5.0,13.0,59,0.00,,OVC,-99.99,VWS V12.07,2013-01-09 22:26:00,
2013-01-09 14:35:00,48.1,35.3,24.42,ESE,114,3.0,8.0,61,0.00,,OVC,-99.99,VWS V12.07,2013-01-09 22:35:00,
2013-01-09 14:40:00,48.0,34.8,24.42,SSE,163,3.0,3.0,60,0.00,,OVC,-99.99,VWS V12.07,2013-01-09 22:40:00,
2013-01-09 14:45:00,47.9,35.1,24.41,SSE,164,2.0,11.0,61,0.00,,OVC,-99.99,VWS V12.07,2013-01-09 22:45:00,
2013-01-09 14:50:00,47.8,34.6,24.42,SSE,163,3.0,3.0,60,0.00,,OVC,-99.99,VWS V12.07,2013-01-09 22:50:00,
2013-01-09 14:56:00,47.6,34.8,24.42,SSE,166,7.0,8.0,61,0.00,,OVC,-99.99,VWS V12.07,2013-01-09 22:56:00,
2013-01-09 15:09:00,47.1,34.4,24.41,SE,137,2.0,10.0,61,0.00,,OVC,-99.99,VWS V12.07,2013-01-09 23:09:00,
2013-01-09 15:15:00,46.8,34.5,24.41,SE,144,3.0,10.0,62,0.00,,OVC,-99.99,VWS V12.07,2013-01-09 23:15:00,
2013-01-09 15:21:00,46.6,33.9,24.41,SSW,196,2.0,8.0,61,0.00,,OVC,-99.99,VWS V12.07,2013-01-09 23:21:00,
2013-01-09 15:26:00,46.3,34.0,24.41,SE,136,1.0,8.0,62,0.00,,OVC,-99.99,VWS V12.07,2013-01-09 23:26:00,
2013-01-09 15:35:00,46.1,34.6,24.41,SE,137,3.0,11.0,64,0.00,,OVC,-99.99,VWS V12.07,2013-01-09 23:35:00,
2013-01-09 15:40:00,46.0,34.5,24.40,SSE,164,7.0,7.0,64,0.00,,OVC,-99.99,VWS V12.07,2013-01-09 23:40:00,
2013-01-09 15:45:00,45.8,34.7,24.40,SSE,148,2.0,8.0,65,0.00,,OVC,-99.99,VWS V12.07,2013-01-09 23:45:00,
2013-01-09 15:51:00,45.4,33.6,24.40,SE,134,4.0,6.0,63,0.00,,OVC,-99.99,VWS V12.07,2013-01-09 23:51:00,
2013-01-09 15:56:00,45.2,33.8,24.40,South,172,5.0,9.0,64,0.00,,OVC,-99.99,VWS V12.07,2013-01-09 23:56:00,
2013-01-09 16:09:00,44.5,33.9,24.40,South,185,1.0,7.0,66,0.00,,OVC,-99.99,VWS V12.07,2013-01-10 00:09:00,
2013-01-09 16:15:00,44.1,33.9,24.40,SSW,208,4.0,5.0,67,0.00,,OVC,-99.99,VWS V12.07,2013-01-10 00:15:00,
2013-01-09 16:20:00,43.9,34.0,24.41,East,91,2.0,3.0,68,0.00,,OVC,-99.99,VWS V12.07,2013-01-10 00:20:00,
2013-01-09 16:26:00,43.8,33.9,24.40,SE,141,2.0,10.0,68,0.00,,OVC,-99.99,VWS V12.07,2013-01-10 00:26:00,
2013-01-09 16:34:00,43.6,33.4,24.39,SSE,155,5.0,6.0,67,0.00,,OVC,-99.99,VWS V12.07,2013-01-10 00:34:00,
2013-01-09 16:40:00,43.4,33.2,24.39,SE,131,3.0,4.0,67,0.00,,OVC,-99.99,VWS V12.07,2013-01-10 00:40:00,
2013-01-09 16:45:00,43.2,33.4,24.39,ESE,122,3.0,4.0,68,0.00,,OVC,-99.99,VWS V12.07,2013-01-10 00:45:00,
2013-01-09 16:51:00,43.0,33.5,24.39,SSE,151,2.0,5.0,69,0.00,,OVC,-99.99,VWS V12.07,2013-01-10 00:51:00,
2013-01-09 16:56:00,42.9,33.8,24.39,SE,136,4.0,7.0,70,0.00,,OVC,-99.99,VWS V12.07,2013-01-10 00:56:00,
2013-01-09 17:09:00,42.3,32.9,24.38,SE,126,0.0,9.0,69,0.00,,OVC,-99.99,VWS V12.07,2013-01-10 01:09:00,
2013-01-09 17:15:00,41.9,32.1,24.38,South,190,0.0,4.0,68,0.00,,OVC,-99.99,VWS V12.07,2013-01-10 01:15:00,
2013-01-09 17:21:00,41.6,31.8,24.38,SSE,163,4.0,4.0,68,0.00,,OVC,-99.99,VWS V12.07,2013-01-10 01:21:00,
2013-01-09 17:26:00,41.4,31.6,24.39,SSE,157,2.0,9.0,68,0.00,,OVC,-99.99,VWS V12.07,2013-01-10 01:26:00,
2013-01-09 17:35:00,41.1,31.4,24.38,SSE,165,3.0,6.0,68,0.00,,OVC,-99.99,VWS V12.07,2013-01-10 01:35:00,
2013-01-09 17:40:00,40.8,31.1,24.37,ESE,106,4.0,6.0,68,0.00,,OVC,-99.99,VWS V12.07,2013-01-10 01:40:00,
2013-01-09 17:45:00,40.6,30.9,24.37,NNE,21,3.0,4.0,68,0.00,,OVC,-99.99,VWS V12.07,2013-01-10 01:45:00,
2013-01-09 17:51:00,40.5,31.1,24.37,SSE,163,2.0,3.0,69,0.00,,OVC,-99.99,VWS V12.07,2013-01-10 01:51:00,
2013-01-09 17:56:00,40.5,31.1,24.37,SE,128,0.0,7.0,69,0.00,,OVC,-99.99,VWS V12.07,2013-01-10 01:56:00,
2013-01-09 18:09:00,40.2,30.5,24.37,SSE,158,4.0,7.0,68,0.00,,OVC,-99.99,VWS V12.07,2013-01-10 02:09:00,
2013-01-09 18:15:00,40.1,30.4,24.37,SSE,165,2.0,7.0,68,0.00,,OVC,-99.99,VWS V12.07,2013-01-10 02:15:00,
2013-01-09 18:21:00,40.1,30.0,24.37,South,175,3.0,5.0,67,0.00,,OVC,-99.99,VWS V12.07,2013-01-10 02:21:00,
2013-01-09 18:26:00,40.2,30.5,24.37,SSE,150,1.0,6.0,68,0.00,,OVC,-99.99,VWS V12.07,2013-01-10 02:26:00,
2013-01-09 18:35:00,39.9,30.6,24.36,SE,145,2.0,7.0,69,0.00,,OVC,-99.99,VWS V12.07,2013-01-10 02:35:00,
2013-01-09 18:41:00,40.0,30.7,24.36,ENE,68,2.0,4.0,69,0.00,,OVC,-99.99,VWS V12.07,2013-01-10 02:41:00,
2013-01-09 18:46:00,40.1,30.4,24.36,South,182,3.0,11.0,68,0.00,,OVC,-99.99,VWS V12.07,2013-01-10 02:46:00,
2013-01-09 18:51:00,40.2,30.1,24.36,ESE,102,2.0,7.0,67,0.00,,OVC,-99.99,VWS V12.07,2013-01-10 02:51:00,
2013-01-09 18:56:00,40.3,30.2,24.36,SE,137,7.0,10.0,67,0.00,,OVC,-99.99,VWS V12.07,2013-01-10 02:56:00,
2013-01-09 19:09:00,40.3,29.9,24.36,ENE,58,2.0,8.0,66,0.00,,OVC,-99.99,VWS V12.07,2013-01-10 03:09:00,
2013-01-09 19:15:00,40.3,30.2,24.36,ENE,58,0.0,6.0,67,0.00,,OVC,-99.99,VWS V12.07,2013-01-10 03:15:00,
2013-01-09 19:20:00,40.1,30.0,24.36,East,90,2.0,6.0,67,0.00,,OVC,-99.99,VWS V12.07,2013-01-10 03:20:00,
2013-01-09 19:25:00,39.9,30.2,24.35,ESE,112,4.0,6.0,68,0.00,,OVC,-99.99,VWS V12.07,2013-01-10 03:25:00,
2013-01-09 19:35:00,39.7,30.4,24.35,ESE,108,5.0,6.0,69,0.00,,OVC,-99.99,VWS V12.07,2013-01-10 03:35:00,
2013-01-09 19:41:00,39.5,30.2,24.35,NNE,21,0.0,1.0,69,0.00,,OVC,-99.99,VWS V12.07,2013-01-10 03:41:00,
2013-01-09 19:46:00,39.4,30.1,24.35,ESE,122,1.0,9.0,69,0.00,,OVC,-99.99,VWS V12.07,2013-01-10 03:46:00,
2013-01-09 19:51:00,39.3,30.7,24.35,SSE,163,3.0,3.0,71,0.00,,OVC,-99.99,VWS V12.07,2013-01-10 03:51:00,
2013-01-09 19:56:00,39.2,32.0,24.35,SE,136,3.0,9.0,75,0.00,,OVC,-99.99,VWS V12.07,2013-01-10 03:56:00,
2013-01-09 20:09:00,39.2,29.9,24.34,SE,143,0.0,8.0,69,0.00,,OVC,-99.99,VWS V12.07,2013-01-10 04:09:00,
2013-01-09 20:15:00,39.0,30.1,24.34,SSE,160,2.0,6.0,70,0.00,,OVC,-99.99,VWS V12.07,2013-01-10 04:15:00,
2013-01-09 20:21:00,38.9,30.0,24.34,NNE,23,3.0,6.0,70,0.00,,OVC,-99.99,VWS V12.07,2013-01-10 04:21:00,
2013-01-09 20:26:00,38.8,29.9,24.34,ESE,119,3.0,6.0,70,0.00,,OVC,-99.99,VWS V12.07,2013-01-10 04:26:00,
2013-01-09 20:34:00,38.9,29.6,24.34,SE,127,3.0,13.0,69,0.00,,OVC,-99.99,VWS V12.07,2013-01-10 04:34:00,
2013-01-09 20:40:00,38.9,29.2,24.34,SE,144,2.0,13.0,68,0.00,,OVC,-99.99,VWS V12.07,2013-01-10 04:40:00,
2013-01-09 20:45:00,38.9,29.2,24.34,SSE,161,1.0,9.0,68,0.00,,OVC,-99.99,VWS V12.07,2013-01-10 04:45:00,
2013-01-09 20:51:00,39.1,28.3,24.34,South,178,2.0,4.0,65,0.00,,OVC,-99.99,VWS V12.07,2013-01-10 04:51:00,
2013-01-09 20:56:00,39.3,27.8,24.34,SE,124,3.0,11.0,63,0.00,,OVC,-99.99,VWS V12.07,2013-01-10 04:56:00,
2013-01-09 21:11:00,39.3,28.5,24.34,ESE,115,2.0,6.0,65,0.00,,OVC,-99.99,VWS V12.07,2013-01-10 05:11:00,
2013-01-09 21:12:00,39.2,28.4,24.34,South,178,6.0,6.0,65,0.00,,OVC,-99.99,VWS V12.07,2013-01-10 05:12:00,
2013-01-09 21:14:00,39.2,28.4,24.33,South,177,0.0,8.0,65,0.00,,OVC,-99.99,VWS V12.07,2013-01-10 05:14:00,
2013-01-09 21:17:00,39.1,28.7,24.33,SE,146,9.0,9.0,66,0.00,,OVC,-99.99,VWS V12.07,2013-01-10 05:17:00,
2013-01-09 21:22:00,39.0,29.0,24.33,South,169,2.0,9.0,67,0.00,,OVC,-99.99,VWS V12.07,2013-01-10 05:22:00,
2013-01-09 21:27:00,39.0,29.0,24.33,SSE,151,2.0,9.0,67,0.00,,OVC,-99.99,VWS V12.07,2013-01-10 05:27:00,
2013-01-09 21:34:00,38.8,28.8,24.33,South,180,4.0,8.0,67,0.00,,OVC,-99.99,VWS V12.07,2013-01-10 05:34:00,
2013-01-09 21:40:00,38.8,28.8,24.33,South,172,2.0,10.0,67,0.00,,OVC,-99.99,VWS V12.07,2013-01-10 05:40:00,
2013-01-09 21:45:00,38.7,28.3,24.32,South,171,5.0,7.0,66,0.00,,OVC,-99.99,VWS V12.07,2013-01-10 05:45:00,
2013-01-09 21:51:00,38.7,28.0,24.33,SE,144,3.0,8.0,65,0.00,,OVC,-99.99,VWS V12.07,2013-01-10 05:51:00,
2013-01-09 21:56:00,38.8,27.7,24.32,SSE,147,3.0,10.0,64,0.00,,OVC,-99.99,VWS V12.07,2013-01-10 05:56:00,
2013-01-09 22:08:00,38.8,26.9,24.32,SSE,160,3.0,12.0,62,0.00,,OVC,-99.99,VWS V12.07,2013-01-10 06:08:00,
2013-01-09 22:14:00,38.7,28.0,24.32,SSE,149,5.0,7.0,65,0.00,,OVC,-99.99,VWS V12.07,2013-01-10 06:14:00,
2013-01-09 22:19:00,38.6,27.5,24.33,SE,141,4.0,11.0,64,0.00,,OVC,-99.99,VWS V12.07,2013-01-10 06:19:00,
2013-01-09 22:24:00,38.5,27.8,24.32,South,175,1.0,9.0,65,0.00,,OVC,-99.99,VWS V12.07,2013-01-10 06:24:00,
2013-01-09 22:29:00,38.4,28.4,24.32,SE,135,3.0,9.0,67,0.00,,OVC,-99.99,VWS V12.07,2013-01-10 06:29:00,
2013-01-09 22:34:00,38.3,28.3,24.32,SE,137,7.0,11.0,67,0.00,,OVC,-99.99,VWS V12.07,2013-01-10 06:34:00,
2013-01-09 22:40:00,38.5,29.9,24.32,SE,141,5.0,13.0,71,0.00,,OVC,-99.99,VWS V12.07,2013-01-10 06:40:00,
2013-01-09 22:45:00,38.6,30.4,24.32,ENE,67,2.0,11.0,72,0.00,,OVC,-99.99,VWS V12.07,2013-01-10 06:45:00,
2013-01-09 22:50:00,38.7,30.5,24.32,SSE,159,4.0,11.0,72,0.00,,OVC,-99.99,VWS V12.07,2013-01-10 06:50:00,
2013-01-09 22:55:00,38.8,30.6,24.31,SSE,165,4.0,8.0,72,0.00,,OVC,-99.99,VWS V12.07,2013-01-10 06:55:00,
2013-01-09 23:10:00,38.9,30.3,24.31,East,90,4.0,5.0,71,0.00,,OVC,-99.99,VWS V12.07,2013-01-10 07:10:00,
2013-01-09 23:16:00,38.9,30.3,24.31,East,89,3.0,6.0,71,0.00,,OVC,-99.99,VWS V12.07,2013-01-10 07:16:00,
2013-01-09 23:21:00,38.9,30.0,24.31,SE,125,5.0,5.0,70,0.00,,OVC,-99.99,VWS V12.07,2013-01-10 07:21:00,
2013-01-09 23:26:00,39.3,30.0,24.31,SE,140,3.0,9.0,69,0.00,,OVC,-99.99,VWS V12.07,2013-01-10 07:26:00,
2013-01-09 23:34:00,39.6,30.3,24.30,East,93,3.0,6.0,69,0.00,,OVC,-99.99,VWS V12.07,2013-01-10 07:34:00,
2013-01-09 23:40:00,39.7,30.0,24.30,ENE,59,4.0,11.0,68,0.00,,OVC,-99.99,VWS V12.07,2013-01-10 07:40:00,
2013-01-09 23:45:00,39.8,30.1,24.30,ENE,77,1.0,8.0,68,0.00,,OVC,-99.99,VWS V12.07,2013-01-10 07:45:00,
2013-01-09 23:50:00,39.8,30.1,24.30,SE,137,2.0,10.0,68,0.00,,OVC,-99.99,VWS V12.07,2013-01-10 07:50:00,
2013-01-09 23:55:00,39.9,30.2,24.30,ENE,67,4.0,9.0,68,0.00,,OVC,-99.99,VWS V12.07,2013-01-10 07:55:00,